Time;durP1;ratioP1;P1;durP2;ratioP2;P2;SDS_P1;SDS_P2;PMS_P1;PMS_P2;Temp;Humidity;BMP_temperature;BMP_pressure;BME280_temperature;BME280_humidity;BME280_pressure;Samples;Min_cycle;Max_cycle;Signal;HPM_P1;HPM_P2
2022/01/02 00:01:51;;;;;;;6.30;4.13;;;;;;;10.97;100.00;101739.31;5290186;28;20115;-88
2022/01/02 00:04:23;;;;;;;7.82;4.30;;;;;;;11.00;100.00;101740.03;5305929;28;20095;-88
2022/01/02 00:07:00;;;;;;;5.85;4.03;;;;;;;11.04;100.00;101757.50;5305820;28;20103;-88
2022/01/02 00:09:36;;;;;;;5.07;3.97;;;;;;;11.08;100.00;101754.47;5306240;28;20048;-88
2022/01/02 00:12:11;;;;;;;6.80;4.10;;;;;;;11.09;100.00;101765.97;5305951;28;20021;-88
2022/01/02 00:14:47;;;;;;;6.82;3.58;;;;;;;11.11;100.00;101769.38;5306092;28;20024;-88
2022/01/02 00:17:23;;;;;;;7.03;4.25;;;;;;;11.05;100.00;101770.72;5304434;28;20027;-88
2022/01/02 00:19:57;;;;;;;6.90;3.90;;;;;;;11.15;100.00;101771.69;5305830;28;20020;-87
2022/01/02 00:22:35;;;;;;;8.60;3.63;;;;;;;11.16;100.00;101770.69;5304554;28;20016;-86
2022/01/02 00:25:14;;;;;;;7.38;3.10;;;;;;;11.12;100.00;101766.59;5305920;28;20119;-88
2022/01/02 00:27:45;;;;;;;4.90;3.35;;;;;;;11.18;100.00;101765.22;5305462;28;20056;-88
2022/01/02 00:30:17;;;;;;;5.38;3.17;;;;;;;11.21;100.00;101761.47;5305478;28;20054;-87
2022/01/02 00:32:48;;;;;;;8.73;4.00;;;;;;;11.18;100.00;101743.88;5304884;28;20023;-87
2022/01/02 00:35:38;;;;;;;8.18;3.80;;;;;;;11.10;100.00;101751.66;5305273;28;20501;-89
2022/01/02 00:38:20;;;;;;;7.95;3.90;;;;;;;11.03;100.00;101747.81;5304545;28;20024;-88
2022/01/02 00:40:54;;;;;;;5.55;3.95;;;;;;;10.86;100.00;101749.13;5305494;28;20020;-89
2022/01/02 00:43:40;;;;;;;14.20;4.68;;;;;;;10.78;100.00;101758.59;5305488;28;20517;-86
2022/01/02 00:46:14;;;;;;;6.30;4.40;;;;;;;10.69;100.00;101761.97;5305717;28;20023;-86
2022/01/02 00:48:47;;;;;;;7.18;4.20;;;;;;;10.56;100.00;101750.59;5305574;28;20048;-86
2022/01/02 00:51:34;;;;;;;6.35;4.20;;;;;;;10.42;100.00;101765.00;5304953;28;20649;-86
2022/01/02 00:54:07;;;;;;;6.38;3.75;;;;;;;10.34;100.00;101762.06;5302954;28;20526;-86
2022/01/02 00:56:43;;;;;;;8.30;4.07;;;;;;;10.23;100.00;101758.38;5305038;28;20036;-87
2022/01/02 00:59:27;;;;;;;9.77;4.30;;;;;;;10.22;100.00;101745.19;5304632;28;20039;-87
2022/01/02 01:02:03;;;;;;;10.20;4.78;;;;;;;10.18;100.00;101749.88;5304735;28;20025;-87
2022/01/02 01:04:41;;;;;;;14.75;5.22;;;;;;;10.08;100.00;101734.72;5304324;28;20064;-87
2022/01/02 01:07:13;;;;;;;7.28;3.97;;;;;;;10.00;100.00;101740.63;5303383;28;20021;-87
2022/01/02 01:09:46;;;;;;;10.85;4.70;;;;;;;10.01;100.00;101740.53;5304628;28;20023;-85
2022/01/02 01:12:19;;;;;;;14.85;5.30;;;;;;;9.93;100.00;101728.75;5304789;28;20437;-85
2022/01/02 01:14:51;;;;;;;9.50;5.05;;;;;;;9.94;100.00;101741.09;5303209;28;20024;-86
2022/01/02 01:17:24;;;;;;;8.23;4.88;;;;;;;9.87;100.00;101740.72;5304718;28;20029;-86
2022/01/02 01:19:55;;;;;;;8.00;5.55;;;;;;;9.88;100.00;101731.75;5304479;28;20774;-86
2022/01/02 01:22:27;;;;;;;10.30;6.15;;;;;;;9.84;100.00;101717.81;5304509;28;20016;-86
2022/01/02 01:24:58;;;;;;;11.00;5.30;;;;;;;9.81;100.00;101727.84;5304048;28;27859;-86
2022/01/02 01:27:29;;;;;;;9.48;5.20;;;;;;;9.80;100.00;101708.34;5305751;28;20472;-85
2022/01/02 01:30:03;;;;;;;11.82;5.85;;;;;;;9.79;100.00;101727.13;5305842;28;20013;-86
2022/01/02 01:32:35;;;;;;;11.85;5.45;;;;;;;9.80;100.00;101710.16;5306981;28;20147;-86
2022/01/02 01:35:07;;;;;;;9.07;5.53;;;;;;;9.78;100.00;101712.09;5307364;28;20489;-86
2022/01/02 01:37:39;;;;;;;12.50;5.43;;;;;;;9.77;100.00;101692.59;5305389;28;20032;-85
2022/01/02 01:40:12;;;;;;;12.13;5.50;;;;;;;9.78;100.00;101698.78;5305265;28;20374;-86
2022/01/02 01:42:56;;;;;;;11.77;5.82;;;;;;;9.73;100.00;101700.94;5304712;28;20021;-86
2022/01/02 01:45:28;;;;;;;14.75;6.28;;;;;;;9.73;100.00;101701.81;5304015;28;20051;-86
2022/01/02 01:48:03;;;;;;;10.82;5.60;;;;;;;9.74;100.00;101700.81;5304387;28;20404;-86
2022/01/02 01:50:42;;;;;;;10.23;5.50;;;;;;;9.70;100.00;101686.03;5303053;28;20025;-86
2022/01/02 01:53:13;;;;;;;12.40;5.28;;;;;;;9.70;100.00;101686.03;5304076;28;20029;-86
2022/01/02 01:55:45;;;;;;;10.68;5.88;;;;;;;9.71;100.00;101694.88;5304249;28;20040;-86
2022/01/02 01:58:16;;;;;;;9.18;5.80;;;;;;;9.71;100.00;101673.56;5302664;28;20029;-85
2022/01/02 02:00:47;;;;;;;11.52;5.93;;;;;;;9.77;100.00;101683.75;5304535;28;20491;-87
2022/01/02 02:03:19;;;;;;;11.82;5.55;;;;;;;9.78;100.00;101670.31;5304160;28;20405;-88
2022/01/02 02:05:51;;;;;;;10.25;5.03;;;;;;;9.74;100.00;101658.19;5304273;28;20077;-86
2022/01/02 02:08:26;;;;;;;11.65;5.53;;;;;;;9.79;100.00;101658.69;5304123;28;20428;-86
2022/01/02 02:10:58;;;;;;;10.13;4.93;;;;;;;9.81;100.00;101642.59;5303835;28;20025;-87
2022/01/02 02:13:29;;;;;;;11.32;5.68;;;;;;;9.83;100.00;101644.19;5303844;28;20020;-87
2022/01/02 02:16:02;;;;;;;11.23;4.97;;;;;;;9.90;100.00;101649.03;5304175;28;20510;-85
2022/01/02 02:18:35;;;;;;;19.05;6.18;;;;;;;9.89;100.00;101632.19;5303564;28;20510;-85
2022/01/02 02:21:06;;;;;;;13.13;5.68;;;;;;;9.87;100.00;101625.28;5303512;28;20020;-85
2022/01/02 02:23:37;;;;;;;9.57;4.80;;;;;;;9.88;100.00;101637.63;5304144;28;20040;-85
2022/01/02 02:26:09;;;;;;;11.32;5.47;;;;;;;9.93;100.00;101619.47;5303597;28;20016;-86
2022/01/02 02:28:40;;;;;;;9.35;5.05;;;;;;;9.94;100.00;101622.03;5302235;28;20020;-88
2022/01/02 02:31:11;;;;;;;11.38;5.00;;;;;;;9.96;100.00;101608.59;5304156;28;20052;-87
2022/01/02 02:33:42;;;;;;;10.40;4.88;;;;;;;9.98;100.00;101607.50;5303752;28;20112;-86
2022/01/02 02:36:14;;;;;;;11.02;5.00;;;;;;;9.97;100.00;101615.59;5302628;28;29626;-87
2022/01/02 02:38:45;;;;;;;10.75;5.32;;;;;;;10.00;100.00;101631.34;5291192;28;20101;-86
2022/01/02 02:41:17;;;;;;;13.60;4.60;;;;;;;10.00;100.00;101620.69;5282421;28;20033;-87
2022/01/02 02:44:02;;;;;;;11.90;5.40;;;;;;;9.99;100.00;101617.19;5281806;28;20021;-87
2022/01/02 02:49:23;;;;;;;13.50;5.22;;;;;;;9.96;100.00;101598.78;5282386;28;20037;-87
2022/01/02 02:52:00;;;;;;;14.10;5.22;;;;;;;10.06;100.00;101590.88;5283878;28;20382;-86
2022/01/02 02:54:33;;;;;;;12.20;5.03;;;;;;;10.08;100.00;101588.97;5284030;28;20074;-87
2022/01/02 02:57:11;;;;;;;12.32;4.93;;;;;;;10.14;100.00;101583.13;5285181;28;20025;-87
2022/01/02 02:59:43;;;;;;;10.68;5.70;;;;;;;10.22;100.00;101586.06;5290688;28;20036;-87
2022/01/02 03:02:14;;;;;;;7.97;4.90;;;;;;;10.23;100.00;101585.06;5295611;28;20029;-86
2022/01/02 03:04:45;;;;;;;13.95;5.10;;;;;;;10.23;100.00;101578.91;5294750;28;20075;-87
2022/01/02 03:07:17;;;;;;;11.93;5.22;;;;;;;10.35;100.00;101582.44;5295321;28;20049;-86
2022/01/02 03:09:51;;;;;;;19.67;6.57;;;;;;;10.34;100.00;101594.06;5290292;28;20382;-86
2022/01/02 03:12:22;;;;;;;13.38;5.65;;;;;;;10.38;100.00;101583.03;5305677;28;20021;-86
2022/01/02 03:14:53;;;;;;;15.98;5.53;;;;;;;10.32;100.00;101574.69;5291731;28;20379;-86
2022/01/02 03:17:25;;;;;;;11.40;5.53;;;;;;;10.31;100.00;101572.94;5291980;28;20025;-86
2022/01/02 03:19:56;;;;;;;14.45;5.20;;;;;;;10.30;100.00;101576.59;5293212;28;20025;-86
2022/01/02 03:22:27;;;;;;;12.13;5.70;;;;;;;10.31;100.00;101581.84;5291311;28;20017;-86
2022/01/02 03:24:58;;;;;;;14.90;6.05;;;;;;;10.35;100.00;101580.63;5287068;28;42831;-87
2022/01/02 03:27:32;;;;;;;12.23;5.30;;;;;;;10.34;100.00;101576.25;5287372;28;20108;-86
2022/01/02 03:30:04;;;;;;;15.13;5.45;;;;;;;10.29;100.00;101562.41;5285778;28;20791;-86
2022/01/02 03:32:35;;;;;;;14.40;6.15;;;;;;;10.32;100.00;101572.00;5286514;28;20025;-86
2022/01/02 03:35:07;;;;;;;14.32;5.95;;;;;;;10.32;100.00;101586.19;5286196;28;20017;-86
2022/01/02 03:37:39;;;;;;;12.15;5.80;;;;;;;10.32;100.00;101582.69;5286127;28;20103;-86
2022/01/02 03:40:11;;;;;;;12.70;5.72;;;;;;;10.35;100.00;101593.94;5289973;28;20147;-86
2022/01/02 03:45:34;;;;;;;14.98;5.80;;;;;;;10.19;100.00;101577.44;5283064;28;20025;-84
2022/01/02 03:48:06;;;;;;;16.55;7.22;;;;;;;10.15;100.00;101571.50;5284378;28;20023;-87
2022/01/02 03:50:37;;;;;;;13.25;5.80;;;;;;;10.09;100.00;101558.66;5286499;28;20053;-87
2022/01/02 03:53:08;;;;;;;13.73;5.32;;;;;;;10.13;100.00;101564.59;5285349;28;20051;-87
2022/01/02 03:55:40;;;;;;;13.63;5.95;;;;;;;10.09;100.00;101558.66;5285121;28;20041;-86
2022/01/02 03:58:11;;;;;;;17.90;5.70;;;;;;;10.05;100.00;101551.88;5299684;28;20020;-86
2022/01/02 04:00:42;;;;;;;13.95;6.53;;;;;;;10.08;100.00;101551.66;5327087;28;20111;-86
2022/01/02 04:03:15;;;;;;;14.05;5.72;;;;;;;10.12;100.00;101542.44;5310290;28;20048;-86
2022/01/02 04:05:46;;;;;;;15.88;5.97;;;;;;;10.15;100.00;101526.19;5306177;28;20131;-86
2022/01/02 04:08:17;;;;;;;12.73;5.80;;;;;;;10.18;100.00;101528.59;5306482;28;21007;-86
2022/01/02 04:10:49;;;;;;;11.73;5.57;;;;;;;10.21;100.00;101512.34;5305675;28;20476;-86
2022/01/02 04:13:20;;;;;;;12.63;5.50;;;;;;;10.30;100.00;101525.94;5305163;28;20020;-86
2022/01/02 04:15:51;;;;;;;13.75;5.75;;;;;;;10.29;100.00;101527.75;5306130;28;20035;-86
2022/01/02 04:18:23;;;;;;;13.20;5.32;;;;;;;10.32;100.00;101535.50;5306398;28;20024;-85
2022/01/02 04:20:54;;;;;;;12.30;4.95;;;;;;;10.25;100.00;101523.63;5305754;28;20009;-85
2022/01/02 04:23:25;;;;;;;14.98;5.43;;;;;;;10.26;100.00;101528.00;5306024;28;20470;-85
2022/01/02 04:25:56;;;;;;;12.77;4.97;;;;;;;10.27;100.00;101518.16;5307334;28;20020;-86
2022/01/02 04:28:28;;;;;;;16.40;5.60;;;;;;;10.22;100.00;101524.72;5313119;28;31849;-85
2022/01/02 04:30:59;;;;;;;15.25;5.10;;;;;;;10.21;100.00;101531.03;5314873;28;20059;-84
2022/01/02 04:33:30;;;;;;;15.23;5.40;;;;;;;10.14;100.00;101521.00;5314884;28;20087;-86
2022/01/02 04:36:02;;;;;;;13.50;5.32;;;;;;;10.12;100.00;101512.28;5314857;28;20029;-85
2022/01/02 04:38:36;;;;;;;11.55;5.65;;;;;;;10.09;100.00;101518.69;5313094;28;20029;-86
2022/01/02 04:41:07;;;;;;;13.35;5.97;;;;;;;10.07;100.00;101506.47;5309486;28;20021;-86
2022/01/02 04:43:39;;;;;;;13.68;5.80;;;;;;;10.07;100.00;101509.13;5307334;28;20110;-86
2022/01/02 04:46:10;;;;;;;11.88;5.57;;;;;;;10.04;100.00;101494.22;5306081;28;20451;-86
2022/01/02 04:48:41;;;;;;;11.75;5.78;;;;;;;9.99;100.00;101489.25;5306649;28;20020;-86
2022/01/02 04:51:12;;;;;;;16.52;6.00;;;;;;;9.98;100.00;101481.38;5306341;28;20023;-85
2022/01/02 04:53:48;;;;;;;13.25;5.65;;;;;;;9.95;100.00;101481.63;5307579;28;20021;-84
2022/01/02 04:56:19;;;;;;;14.20;5.03;;;;;;;9.92;100.00;101471.22;5311413;28;20040;-84
2022/01/02 04:58:50;;;;;;;9.80;5.22;;;;;;;9.89;100.00;101459.00;5313901;28;20017;-86
2022/01/02 05:01:22;;;;;;;15.35;6.10;;;;;;;9.88;100.00;101453.78;5321189;28;20021;-88
2022/01/02 05:03:53;;;;;;;16.98;5.72;;;;;;;9.88;100.00;101432.47;5319806;28;20041;-87
2022/01/02 05:06:24;;;;;;;13.95;5.88;;;;;;;9.87;100.00;101431.63;5316816;28;38272;-86
2022/01/02 05:08:55;;;;;;;13.55;5.25;;;;;;;9.84;100.00;101427.38;5316633;28;20024;-86
2022/01/02 05:11:27;;;;;;;10.88;5.10;;;;;;;9.86;100.00;101427.25;5317173;28;20017;-86
2022/01/02 05:13:58;;;;;;;13.43;5.53;;;;;;;9.86;100.00;101421.94;5319572;28;20020;-87
2022/01/02 05:16:29;;;;;;;10.10;5.22;;;;;;;9.83;100.00;101404.38;5322459;28;20431;-87
2022/01/02 05:19:01;;;;;;;22.58;5.45;;;;;;;9.84;100.00;101414.06;5321761;28;20013;-85
2022/01/02 05:21:32;;;;;;;15.48;5.57;;;;;;;9.82;100.00;101420.50;5319437;28;20099;-86
2022/01/02 05:24:03;;;;;;;11.48;5.47;;;;;;;9.84;100.00;101407.88;5317078;28;20025;-84
2022/01/02 05:26:35;;;;;;;11.13;5.32;;;;;;;9.86;100.00;101413.09;5316328;28;20024;-85
2022/01/02 05:29:06;;;;;;;12.13;5.10;;;;;;;9.87;100.00;101404.09;5315053;28;20100;-86
2022/01/02 05:31:37;;;;;;;15.75;6.15;;;;;;;9.80;100.00;101401.09;5308744;28;20062;-85
2022/01/02 05:34:08;;;;;;;11.43;4.78;;;;;;;9.81;100.00;101390.31;5312654;28;20030;-85
2022/01/02 05:36:40;;;;;;;13.75;5.10;;;;;;;9.80;100.00;101379.78;5312549;28;41758;-86
2022/01/02 05:39:11;;;;;;;10.60;4.95;;;;;;;9.77;100.00;101375.56;5312209;28;20044;-85
2022/01/02 05:41:43;;;;;;;12.68;4.93;;;;;;;9.75;100.00;101384.66;5315595;28;20008;-86
2022/01/02 05:44:15;;;;;;;15.88;5.75;;;;;;;9.77;100.00;101378.22;5319423;28;20025;-86
2022/01/02 05:46:47;;;;;;;12.18;5.85;;;;;;;9.77;100.00;101377.38;5316658;28;20047;-85
2022/01/02 05:49:18;;;;;;;14.20;5.80;;;;;;;9.75;100.00;101374.84;5315698;28;20029;-85
2022/01/02 05:51:49;;;;;;;14.35;5.55;;;;;;;9.72;100.00;101361.75;5316714;28;20103;-85
2022/01/02 05:54:20;;;;;;;16.45;6.25;;;;;;;9.72;100.00;101344.94;5318461;28;20084;-86
2022/01/02 05:56:52;;;;;;;16.02;7.20;;;;;;;9.74;100.00;101345.66;5311631;28;20035;-86
2022/01/02 05:59:24;;;;;;;11.68;5.47;;;;;;;9.72;100.00;101331.63;5294155;28;20084;-85
2022/01/02 06:01:56;;;;;;;10.38;5.78;;;;;;;9.72;100.00;101329.78;5290149;28;20099;-83
2022/01/02 06:04:27;;;;;;;11.48;5.63;;;;;;;9.69;100.00;101306.06;5310386;28;20107;-84
2022/01/02 06:06:58;;;;;;;14.55;5.20;;;;;;;9.65;100.00;101305.47;5312020;28;20430;-84
2022/01/02 06:09:29;;;;;;;12.40;5.13;;;;;;;9.68;100.00;101300.84;5304451;28;20031;-84
2022/01/02 06:12:01;;;;;;;13.00;5.03;;;;;;;9.70;100.00;101307.75;5302623;28;39933;-84
2022/01/02 06:14:32;;;;;;;10.57;5.13;;;;;;;9.69;100.00;101299.91;5304216;28;20024;-85
2022/01/02 06:17:03;;;;;;;9.40;4.53;;;;;;;9.67;100.00;101281.38;5304465;28;20393;-84
2022/01/02 06:19:35;;;;;;;11.55;4.70;;;;;;;9.69;100.00;101278.59;5305021;28;20056;-86
2022/01/02 06:22:06;;;;;;;11.38;4.90;;;;;;;9.65;100.00;101260.19;5303680;28;42718;-87
2022/01/02 06:24:37;;;;;;;11.63;5.13;;;;;;;9.60;100.00;101248.22;5305959;28;20484;-87
2022/01/02 06:27:09;;;;;;;11.40;4.95;;;;;;;9.61;100.00;101242.78;5305671;28;20039;-87
2022/01/02 06:29:40;;;;;;;8.95;4.63;;;;;;;9.64;100.00;101228.34;5305657;28;20131;-87
2022/01/02 06:32:11;;;;;;;9.43;5.43;;;;;;;9.59;100.00;101222.56;5303175;28;20047;-86
2022/01/02 06:34:46;;;;;;;8.20;3.97;;;;;;;9.59;100.00;101210.09;5304494;28;20020;-85
2022/01/02 06:37:17;;;;;;;9.18;4.20;;;;;;;9.61;100.00;101207.31;5307021;28;20032;-85
2022/01/02 06:39:48;;;;;;;9.30;4.20;;;;;;;9.58;100.00;101203.06;5287393;28;20020;-85
2022/01/02 06:42:20;;;;;;;8.10;4.25;;;;;;;9.53;100.00;101173.31;5287133;28;20163;-85
2022/01/02 06:44:51;;;;;;;13.30;4.68;;;;;;;9.53;100.00;101170.66;5285016;28;20029;-85
2022/01/02 06:47:22;;;;;;;7.72;4.05;;;;;;;9.50;100.00;101162.91;5286245;28;20475;-85
2022/01/02 06:49:53;;;;;;;9.68;4.10;;;;;;;9.52;100.00;101149.47;5284884;28;20021;-84
2022/01/02 06:52:25;;;;;;;6.88;3.88;;;;;;;9.54;100.00;101151.06;5286333;28;20020;-85
2022/01/02 06:54:56;;;;;;;5.40;3.40;;;;;;;9.56;100.00;101149.09;5286355;28;20021;-85
2022/01/02 06:57:27;;;;;;;9.63;3.70;;;;;;;9.61;100.00;101143.41;5283692;28;39182;-85
2022/01/02 06:59:58;;;;;;;6.68;3.47;;;;;;;9.66;100.00;101127.88;5285680;28;20021;-85
2022/01/02 07:02:30;;;;;;;9.57;3.65;;;;;;;9.68;100.00;101133.03;5286332;28;20025;-85
2022/01/02 07:05:01;;;;;;;6.57;3.55;;;;;;;9.65;100.00;101113.69;5285798;28;20121;-86
2022/01/02 07:07:32;;;;;;;8.88;3.60;;;;;;;9.70;100.00;101121.31;5286096;28;20043;-86
2022/01/02 07:10:04;;;;;;;6.43;3.47;;;;;;;9.78;100.00;101126.84;5287374;28;20032;-86
2022/01/02 07:12:36;;;;;;;7.72;3.30;;;;;;;9.77;100.00;101127.78;5289275;28;20025;-86
2022/01/02 07:15:09;;;;;;;5.70;3.17;;;;;;;9.75;100.00;101131.59;5287591;28;20028;-87
2022/01/02 07:17:40;;;;;;;10.07;3.20;;;;;;;9.77;100.00;101138.44;5289096;28;20065;-86
2022/01/02 07:20:12;;;;;;;7.25;3.03;;;;;;;9.79;100.00;101143.66;5294961;28;20036;-86
2022/01/02 07:22:44;;;;;;;7.20;3.30;;;;;;;9.78;100.00;101150.81;5297744;28;20025;-86
2022/01/02 07:25:15;;;;;;;5.85;2.95;;;;;;;9.72;100.00;101134.50;5298500;28;20025;-85
2022/01/02 07:27:46;;;;;;;4.93;3.40;;;;;;;9.73;100.00;101120.19;5295873;28;20087;-85
2022/01/02 07:30:18;;;;;;;8.63;4.05;;;;;;;9.69;100.00;101108.13;5294089;28;40926;-85
2022/01/02 07:32:49;;;;;;;7.95;3.53;;;;;;;9.67;100.00;101110.06;5297843;28;20032;-85
2022/01/02 07:35:21;;;;;;;8.27;3.30;;;;;;;9.68;100.00;101101.09;5295208;28;20391;-85
2022/01/02 07:37:52;;;;;;;4.90;2.92;;;;;;;9.76;100.00;101119.94;5291791;28;20040;-86
2022/01/02 07:40:25;;;;;;;7.70;2.90;;;;;;;9.77;100.00;101116.31;5292828;28;20356;-86
2022/01/02 07:42:56;;;;;;;6.63;2.80;;;;;;;9.76;100.00;101115.44;5294130;28;20017;-86
2022/01/02 07:45:27;;;;;;;6.53;3.20;;;;;;;9.89;100.00;101109.06;5292267;28;20067;-87
2022/01/02 07:47:58;;;;;;;6.72;3.38;;;;;;;10.01;100.00;101121.34;5290137;28;20382;-85
2022/01/02 07:50:30;;;;;;;7.60;3.08;;;;;;;10.09;100.00;101128.69;5293010;28;20449;-87
2022/01/02 07:53:01;;;;;;;8.65;3.08;;;;;;;9.98;100.00;101127.78;5288400;28;20056;-85
2022/01/02 07:55:32;;;;;;;6.90;3.08;;;;;;;9.97;100.00;101146.56;5286669;28;20025;-87
2022/01/02 07:58:04;;;;;;;6.68;3.20;;;;;;;9.82;100.00;101144.25;5293054;28;20028;-87
2022/01/02 08:00:35;;;;;;;5.18;3.25;;;;;;;9.71;100.00;101154.09;5307834;28;20021;-87
2022/01/02 08:03:07;;;;;;;6.60;3.33;;;;;;;9.76;100.00;101171.38;5308677;28;20076;-87
2022/01/02 08:05:38;;;;;;;10.90;3.42;;;;;;;9.65;100.00;101160.81;5309786;28;20021;-85
2022/01/02 08:08:09;;;;;;;5.70;3.03;;;;;;;9.65;100.00;101147.47;5310880;28;20089;-85
2022/01/02 08:10:41;;;;;;;5.50;3.75;;;;;;;9.66;100.00;101165.16;5308850;28;20021;-85
2022/01/02 08:13:12;;;;;;;5.22;3.60;;;;;;;9.81;100.00;101153.19;5305222;28;20036;-86
2022/01/02 08:15:43;;;;;;;5.00;3.38;;;;;;;9.77;100.00;101150.94;5304423;28;20481;-85
2022/01/02 08:18:15;;;;;;;6.28;3.17;;;;;;;9.81;100.00;101158.53;5306149;28;20362;-85
2022/01/02 08:20:47;;;;;;;4.70;2.90;;;;;;;9.71;100.00;101159.44;5304341;28;20382;-85
2022/01/02 08:23:18;;;;;;;6.85;2.90;;;;;;;9.81;100.00;101168.34;5305472;28;20031;-85
2022/01/02 08:25:49;;;;;;;5.68;3.22;;;;;;;9.79;100.00;101164.97;5305916;28;20052;-84
2022/01/02 08:28:20;;;;;;;7.07;2.92;;;;;;;9.77;100.00;101138.44;5305424;28;20060;-85
2022/01/02 08:30:52;;;;;;;4.47;3.10;;;;;;;9.88;100.00;101115.38;5304485;28;20060;-85
2022/01/02 08:33:23;;;;;;;5.85;3.03;;;;;;;9.89;100.00;101159.69;5305193;28;20356;-85
2022/01/02 08:35:54;;;;;;;4.05;2.85;;;;;;;9.99;100.00;101150.81;5306093;28;20020;-85
2022/01/02 08:38:28;;;;;;;4.20;2.92;;;;;;;9.96;100.00;101145.72;5306158;28;20382;-86
2022/01/02 08:40:59;;;;;;;4.57;3.20;;;;;;;10.03;100.00;101159.38;5305242;28;20108;-85
2022/01/02 08:43:30;;;;;;;7.32;3.10;;;;;;;10.16;100.00;101136.00;5306033;28;20521;-86
2022/01/02 08:46:02;;;;;;;3.97;2.40;;;;;;;10.25;100.00;101149.53;5305851;28;20024;-85
2022/01/02 08:48:34;;;;;;;5.65;3.38;;;;;;;10.26;100.00;101146.75;5305195;28;20402;-85
2022/01/02 08:51:06;;;;;;;5.80;2.53;;;;;;;10.47;100.00;101153.88;5303869;28;20048;-85
2022/01/02 08:53:39;;;;;;;5.05;3.05;;;;;;;10.77;100.00;101161.00;5305449;28;20425;-86
2022/01/02 08:56:10;;;;;;;5.60;2.83;;;;;;;10.77;100.00;101158.34;5305201;28;20025;-85
2022/01/02 08:58:42;;;;;;;4.35;2.60;;;;;;;10.84;100.00;101162.16;5304062;28;20025;-85
2022/01/02 09:01:13;;;;;;;10.55;3.42;;;;;;;10.85;100.00;101155.84;5305241;28;20114;-85
2022/01/02 09:03:44;;;;;;;6.78;3.13;;;;;;;10.78;100.00;101147.53;5304779;28;20445;-85
2022/01/02 09:06:16;;;;;;;5.10;2.90;;;;;;;10.79;100.00;101159.03;5304757;28;20068;-85
2022/01/02 09:08:47;;;;;;;6.00;3.30;;;;;;;10.86;100.00;101151.34;5304747;28;20024;-85
2022/01/02 09:11:18;;;;;;;6.05;3.40;;;;;;;10.96;100.00;101155.72;5305253;28;20036;-86
2022/01/02 09:13:50;;;;;;;6.70;3.63;;;;;;;11.08;100.00;101140.44;5304707;28;20471;-86
2022/01/02 09:16:21;;;;;;;5.50;3.63;;;;;;;11.22;100.00;101136.50;5305233;28;20051;-85
2022/01/02 09:18:52;;;;;;;8.00;3.92;;;;;;;11.16;100.00;101124.53;5305502;28;20076;-86
2022/01/02 09:21:24;;;;;;;5.05;3.38;;;;;;;11.29;100.00;101134.09;5304672;28;20021;-86
2022/01/02 09:23:55;;;;;;;5.18;3.42;;;;;;;11.37;100.00;101138.75;5305910;28;20021;-86
2022/01/02 09:26:26;;;;;;;6.45;3.90;;;;;;;11.46;100.00;101140.56;5305652;28;20032;-86
2022/01/02 09:28:58;;;;;;;6.90;3.70;;;;;;;11.64;100.00;101154.06;5304873;28;20067;-85
2022/01/02 09:31:29;;;;;;;5.55;3.60;;;;;;;11.78;100.00;101155.47;5305050;28;20078;-85
2022/01/02 09:34:01;;;;;;;8.38;3.38;;;;;;;11.87;100.00;101151.94;5304760;28;20024;-85
2022/01/02 09:36:32;;;;;;;5.60;3.97;;;;;;;11.97;100.00;101147.44;5304754;28;20031;-85
2022/01/02 09:39:04;;;;;;;6.88;4.00;;;;;;;12.02;100.00;101150.53;5304841;28;20017;-85
2022/01/02 09:41:38;;;;;;;5.72;4.00;;;;;;;12.11;100.00;101127.41;5304565;28;20394;-86
2022/01/02 09:44:10;;;;;;;9.55;3.78;;;;;;;12.15;100.00;101162.72;5304576;28;20035;-85
2022/01/02 09:46:43;;;;;;;4.68;3.00;;;;;;;12.13;100.00;101149.50;5302841;28;20009;-85
2022/01/02 09:49:14;;;;;;;6.70;3.60;;;;;;;11.98;100.00;101162.50;5304454;28;20025;-85
2022/01/02 09:51:45;;;;;;;6.53;3.88;;;;;;;11.90;100.00;101165.91;5304518;28;20433;-85
2022/01/02 09:54:16;;;;;;;7.05;4.28;;;;;;;11.94;100.00;101176.28;5304314;28;20789;-85
2022/01/02 09:56:48;;;;;;;6.80;4.13;;;;;;;11.93;100.00;101166.59;5304347;28;20478;-85
2022/01/02 09:59:19;;;;;;;7.38;3.75;;;;;;;11.95;100.00;101181.50;5287407;28;20032;-86
2022/01/02 10:01:51;;;;;;;7.47;3.90;;;;;;;11.96;100.00;101163.66;5281522;28;20023;-87
2022/01/02 10:04:36;;;;;;;7.15;3.95;;;;;;;11.95;100.00;101169.97;5281908;28;20057;-86
2022/01/02 10:07:33;;;;;;;7.80;3.92;;;;;;;12.01;100.00;101172.91;5281373;28;20478;-86
2022/01/02 10:10:11;;;;;;;6.97;4.00;;;;;;;12.19;100.00;101159.63;5281908;28;20021;-87
2022/01/02 10:12:43;;;;;;;7.45;3.72;;;;;;;12.39;100.00;101183.63;5283128;28;20422;-85
2022/01/02 10:15:19;;;;;;;7.80;4.20;;;;;;;12.40;100.00;101190.69;5283377;28;20027;-86
2022/01/02 10:18:09;;;;;;;;;;;;;;;12.44;100.00;101176.84;5283007;28;20028;-85
2022/01/02 10:20:44;;;;;;;6.95;3.50;;;;;;;12.29;100.00;101163.13;5296757;28;19915;-85
2022/01/02 10:23:19;;;;;;;10.52;3.88;;;;;;;12.27;100.00;101170.47;5307057;28;20025;-85
2022/01/02 10:26:00;;;;;;;8.77;4.07;;;;;;;12.24;100.00;101149.34;5310206;28;20031;-86
2022/01/02 10:28:41;;;;;;;7.70;3.78;;;;;;;12.40;100.00;101161.25;5319071;28;20421;-83
2022/01/02 10:31:15;;;;;;;7.15;3.75;;;;;;;12.55;100.00;101146.41;5316509;28;20021;-86
2022/01/02 10:33:58;;;;;;;9.40;4.05;;;;;;;12.58;100.00;101162.16;5317226;28;20030;-85
2022/01/02 10:36:35;;;;;;;5.63;3.30;;;;;;;12.54;100.00;101144.72;5311212;28;20033;-87
2022/01/02 10:39:11;;;;;;;10.32;3.92;;;;;;;12.51;100.00;101131.63;5304948;28;20416;-86
2022/01/02 10:41:51;;;;;;;7.75;3.80;;;;;;;12.59;100.00;101144.28;5302074;28;20039;-87
2022/01/02 10:44:33;;;;;;;8.60;3.40;;;;;;;12.56;100.00;101142.75;5303533;28;20074;-86
2022/01/02 10:47:08;;;;;;;8.10;3.70;;;;;;;12.46;100.00;101158.84;5303309;28;20066;-85
2022/01/02 10:50:05;;;;;;;8.15;3.65;;;;;;;12.37;100.00;101159.72;5302934;28;20087;-84
2022/01/02 10:52:41;;;;;;;10.07;3.75;;;;;;;12.44;100.00;101155.44;5303621;28;20024;-85
2022/01/02 10:55:22;;;;;;;9.57;3.80;;;;;;;12.47;100.00;101140.97;5303169;28;20015;-85
2022/01/02 10:57:55;;;;;;;6.80;3.35;;;;;;;12.45;100.00;101138.44;5303428;28;20028;-85
2022/01/02 11:00:27;;;;;;;14.25;3.88;;;;;;;12.44;100.00;101147.44;5303229;28;20051;-85
2022/01/02 11:02:59;;;;;;;10.27;3.92;;;;;;;12.40;100.00;101147.88;5302771;28;20036;-86
2022/01/02 11:05:31;;;;;;;6.10;3.25;;;;;;;12.46;100.00;101166.88;5303119;28;20063;-85
2022/01/02 11:08:04;;;;;;;6.80;3.25;;;;;;;12.61;100.00;101144.97;5303736;28;20052;-86
2022/01/02 11:10:35;;;;;;;8.82;3.15;;;;;;;13.21;100.00;101156.00;5303570;28;20016;-86
2022/01/02 11:13:07;;;;;;;7.63;3.47;;;;;;;13.64;100.00;101140.22;5302677;28;20020;-85
2022/01/02 11:15:39;;;;;;;7.20;3.60;;;;;;;13.91;100.00;101141.91;5306122;28;20029;-86
2022/01/02 11:18:11;;;;;;;8.20;3.78;;;;;;;15.05;100.00;101137.25;5308250;28;20124;-87
2022/01/02 11:20:44;;;;;;;10.60;3.35;;;;;;;16.47;100.00;101137.88;5309774;28;20020;-87
2022/01/02 11:23:25;;;;;;;7.03;3.05;;;;;;;16.18;100.00;101141.97;5312789;28;20497;-85
2022/01/02 11:26:10;;;;;;;7.72;3.20;;;;;;;15.66;100.00;101143.19;5311202;28;20024;-86
2022/01/02 11:28:47;;;;;;;9.23;3.55;;;;;;;15.13;100.00;101145.34;5308359;28;20021;-86
2022/01/02 11:31:36;;;;;;;7.05;2.97;;;;;;;15.05;100.00;101138.09;5305806;28;20029;-86
2022/01/02 11:34:25;;;;;;;8.70;3.40;;;;;;;14.98;100.00;101147.81;5305504;28;20028;-85
2022/01/02 11:37:11;;;;;;;9.73;3.42;;;;;;;14.94;100.00;101146.47;5306868;28;20036;-87
2022/01/02 11:40:00;;;;;;;9.90;3.35;;;;;;;15.12;100.00;101131.03;5308981;28;25603;-88
2022/01/02 11:42:34;;;;;;;5.85;2.95;;;;;;;15.62;100.00;101148.06;5309618;28;20020;-87
2022/01/02 11:45:08;;;;;;;7.65;3.38;;;;;;;15.96;100.00;101144.38;5310737;28;20016;-87
2022/01/02 11:47:40;;;;;;;5.95;3.05;;;;;;;15.38;100.00;101131.94;5318528;28;20017;-87
2022/01/02 11:50:34;;;;;;;9.00;3.05;;;;;;;14.39;100.00;101169.19;5318626;28;20016;-86